createdAt,value
2017-07-19T00:00:47.822Z,0
2017-07-19T00:01:47.434Z,0
2017-07-19T00:02:48.052Z,0
2017-07-19T00:03:48.065Z,0
2017-07-19T00:04:48.036Z,0
2017-07-19T00:05:48.022Z,0
2017-07-19T00:06:47.987Z,0
2017-07-19T00:07:47.986Z,0
2017-07-19T00:08:47.993Z,0
2017-07-19T00:09:47.038Z,0
2017-07-19T00:10:47.637Z,0
2017-07-19T00:11:47.643Z,0
2017-07-19T00:12:47.600Z,0
2017-07-19T00:13:47.367Z,0
2017-07-19T00:14:47.594Z,0
2017-07-19T00:15:47.574Z,0
2017-07-19T00:16:47.551Z,0
2017-07-19T00:17:47.551Z,0
2017-07-19T00:18:47.553Z,0
2017-07-19T00:19:47.553Z,0
2017-07-19T00:20:46.874Z,0
2017-07-19T00:21:47.173Z,0
2017-07-19T00:22:46.852Z,0
2017-07-19T00:23:47.457Z,0
2017-07-19T00:24:47.456Z,0
2017-07-19T00:25:47.438Z,0
2017-07-19T00:26:47.154Z,0
2017-07-19T00:27:46.795Z,0
2017-07-19T00:28:47.429Z,0
2017-07-19T00:29:47.716Z,0
2017-07-19T00:30:47.374Z,0
2017-07-19T00:31:47.365Z,0
2017-07-19T00:32:47.361Z,0
2017-07-19T00:33:47.320Z,0
2017-07-19T00:34:47.702Z,0
2017-07-19T00:35:47.419Z,0
2017-07-19T00:36:47.436Z,0
2017-07-19T00:37:46.985Z,0
2017-07-19T00:38:47.591Z,0
2017-07-19T00:39:46.943Z,0
2017-07-19T00:40:46.925Z,0
2017-07-19T00:41:47.601Z,0
2017-07-19T00:42:46.920Z,0
2017-07-19T00:43:46.914Z,0
2017-07-19T00:44:47.509Z,0
2017-07-19T00:45:47.471Z,0
2017-07-19T00:46:46.844Z,0
2017-07-19T00:47:47.142Z,0
2017-07-19T00:48:47.164Z,0
2017-07-19T00:49:47.435Z,0
2017-07-19T00:50:47.128Z,0
2017-07-19T00:51:46.788Z,0
2017-07-19T00:52:46.474Z,0
2017-07-19T00:53:47.116Z,0
2017-07-19T00:54:47.063Z,0
2017-07-19T00:55:47.444Z,0
2017-07-19T00:56:47.030Z,0
2017-07-19T00:57:46.692Z,0
2017-07-19T00:58:46.989Z,0
2017-07-19T00:59:46.989Z,0
2017-07-19T01:00:46.763Z,0
2017-07-19T01:01:46.946Z,0
2017-07-19T01:02:47.273Z,0
2017-07-19T01:03:46.605Z,0
2017-07-19T01:04:46.608Z,0
2017-07-19T01:05:46.694Z,0
2017-07-19T01:06:46.602Z,0
2017-07-19T01:07:46.896Z,0
2017-07-19T01:08:46.856Z,0
2017-07-19T01:09:47.153Z,0
2017-07-19T01:10:46.827Z,0
2017-07-19T01:11:46.804Z,0
2017-07-19T01:12:46.802Z,0
2017-07-19T01:13:47.090Z,0
2017-07-19T01:14:47.104Z,0
2017-07-19T01:15:46.537Z,0
2017-07-19T01:16:46.803Z,0
2017-07-19T01:17:46.762Z,0
2017-07-19T01:18:46.087Z,0
2017-07-19T01:19:46.411Z,0
2017-07-19T01:20:46.696Z,0
2017-07-19T01:21:46.685Z,0
2017-07-19T01:22:47.001Z,0
2017-07-19T01:23:46.394Z,0
2017-07-19T01:24:46.336Z,0
2017-07-19T01:25:45.998Z,0
2017-07-19T01:26:46.310Z,0
2017-07-19T01:27:46.415Z,0
2017-07-19T01:28:46.602Z,0
2017-07-19T01:29:46.889Z,0
2017-07-19T01:30:45.623Z,0
2017-07-19T01:31:46.563Z,0
2017-07-19T01:32:46.538Z,0
2017-07-19T01:33:46.813Z,0
2017-07-19T01:34:45.902Z,0
2017-07-19T01:35:46.785Z,0
2017-07-19T01:36:46.173Z,0
2017-07-19T01:37:46.472Z,0
2017-07-19T01:38:46.183Z,0
2017-07-19T01:39:46.746Z,0
2017-07-19T01:40:45.803Z,0
2017-07-19T01:41:46.103Z,0
2017-07-19T01:42:46.414Z,0
2017-07-19T01:43:46.096Z,0
2017-07-19T01:44:46.363Z,0
2017-07-19T01:45:46.043Z,0
2017-07-19T01:46:46.034Z,0
2017-07-19T01:47:45.705Z,0
2017-07-19T01:48:46.623Z,0
2017-07-19T01:49:46.005Z,0
2017-07-19T01:50:46.587Z,0
2017-07-19T01:51:46.247Z,0
2017-07-19T01:52:45.620Z,0
2017-07-19T01:53:46.273Z,0
2017-07-19T01:54:46.231Z,0
2017-07-19T01:55:45.649Z,0
2017-07-19T01:56:45.884Z,0
2017-07-19T01:57:46.234Z,0
2017-07-19T01:58:45.845Z,0
2017-07-19T01:59:45.890Z,0
2017-07-19T02:00:46.169Z,0
2017-07-19T02:01:46.115Z,0
2017-07-19T02:02:45.822Z,0
2017-07-19T02:03:45.801Z,0
2017-07-19T02:04:46.076Z,0
2017-07-19T02:05:46.065Z,0
2017-07-19T02:06:46.105Z,0
2017-07-19T02:07:45.927Z,0
2017-07-19T02:08:45.727Z,0
2017-07-19T02:09:45.816Z,0
2017-07-19T02:10:45.686Z,0
2017-07-19T02:11:45.804Z,0
2017-07-19T02:12:46.299Z,0
2017-07-19T02:13:46.086Z,0
2017-07-19T02:14:45.644Z,0
2017-07-19T02:15:45.954Z,0
2017-07-19T02:16:45.636Z,0
2017-07-19T02:17:45.996Z,0
2017-07-19T02:18:45.904Z,0
2017-07-19T02:19:45.666Z,0
2017-07-19T02:20:45.865Z,0
2017-07-19T02:21:45.847Z,0
2017-07-19T02:22:45.889Z,0
2017-07-19T02:23:46.217Z,0
2017-07-19T02:24:45.825Z,0
2017-07-19T02:25:45.832Z,0
2017-07-19T02:26:45.805Z,0
2017-07-19T02:27:45.784Z,0
2017-07-19T02:28:45.786Z,0
2017-07-19T02:29:45.467Z,0
2017-07-19T02:30:46.044Z,0
2017-07-19T02:31:45.731Z,0
2017-07-19T02:32:45.696Z,0
2017-07-19T02:33:45.749Z,0
2017-07-19T02:34:45.688Z,0
2017-07-19T02:35:45.665Z,0
2017-07-19T02:36:45.656Z,0
2017-07-19T02:37:45.337Z,0
2017-07-19T02:38:45.314Z,0
2017-07-19T02:39:45.914Z,0
2017-07-19T02:40:45.657Z,0
2017-07-19T02:41:45.576Z,0
2017-07-19T02:42:45.581Z,0
2017-07-19T02:43:45.835Z,0
2017-07-19T02:44:45.835Z,0
2017-07-19T02:45:45.846Z,0
2017-07-19T02:46:45.826Z,0
2017-07-19T02:47:45.837Z,0
2017-07-19T02:48:45.182Z,0
2017-07-19T02:49:45.523Z,0
2017-07-19T02:50:45.757Z,0
2017-07-19T02:51:45.122Z,0
2017-07-19T02:52:45.716Z,0
2017-07-19T02:53:45.394Z,0
2017-07-19T02:54:45.425Z,0
2017-07-19T02:55:45.681Z,0
2017-07-19T02:56:45.677Z,0
2017-07-19T02:57:45.683Z,0
2017-07-19T02:58:45.639Z,0
2017-07-19T02:59:45.086Z,0
2017-07-19T03:00:44.693Z,0
2017-07-19T03:01:45.601Z,0
2017-07-19T03:02:45.605Z,0
2017-07-19T03:03:45.260Z,0
2017-07-19T03:04:45.073Z,0
2017-07-19T03:05:45.230Z,0
2017-07-19T03:06:45.252Z,0
2017-07-19T03:07:45.538Z,0
2017-07-19T03:08:45.204Z,0
2017-07-19T03:09:45.275Z,0
2017-07-19T03:10:45.174Z,0
2017-07-19T03:11:45.476Z,0
2017-07-19T03:12:45.133Z,0
2017-07-19T03:13:45.439Z,0
2017-07-19T03:14:45.415Z,0
2017-07-19T03:15:45.086Z,0
2017-07-19T03:16:45.394Z,0
2017-07-19T03:17:45.058Z,0
2017-07-19T03:18:45.164Z,0
2017-07-19T03:19:45.345Z,0
2017-07-19T03:20:44.734Z,0
2017-07-19T03:21:45.068Z,0
2017-07-19T03:22:44.698Z,0
2017-07-19T03:23:45.314Z,0
2017-07-19T03:24:44.995Z,0
2017-07-19T03:25:45.056Z,0
2017-07-19T03:26:45.237Z,0
2017-07-19T03:27:45.244Z,0
2017-07-19T03:28:45.338Z,0
2017-07-19T03:29:45.337Z,0
2017-07-19T03:30:44.975Z,0
2017-07-19T03:31:44.568Z,0
2017-07-19T03:32:45.157Z,0
2017-07-19T03:33:45.255Z,0
2017-07-19T03:34:44.235Z,0
2017-07-19T03:35:44.829Z,0
2017-07-19T03:36:44.190Z,0
2017-07-19T03:37:45.185Z,0
2017-07-19T03:38:43.863Z,0
2017-07-19T03:39:44.750Z,5
2017-07-19T03:40:44.447Z,5
2017-07-19T03:41:44.148Z,5
2017-07-19T03:42:44.433Z,5
2017-07-19T03:43:44.759Z,5
2017-07-19T03:44:44.378Z,5
2017-07-19T03:45:44.700Z,5
2017-07-19T03:46:44.675Z,5
2017-07-19T03:47:44.345Z,5
2017-07-19T03:48:44.317Z,5
2017-07-19T03:49:44.925Z,5
2017-07-19T03:50:44.602Z,5
2017-07-19T03:51:44.605Z,5
2017-07-19T03:52:44.286Z,5
2017-07-19T03:53:44.611Z,10
2017-07-19T03:54:43.940Z,10
2017-07-19T03:55:44.545Z,10
2017-07-19T03:56:44.508Z,10
2017-07-19T03:57:44.516Z,10
2017-07-19T03:58:43.894Z,10
2017-07-19T03:59:44.157Z,10
2017-07-19T04:00:44.466Z,10
2017-07-19T04:01:44.447Z,10
2017-07-19T04:02:44.506Z,10
2017-07-19T04:03:44.107Z,15
2017-07-19T04:04:43.785Z,15
2017-07-19T04:05:44.068Z,15
2017-07-19T04:06:44.386Z,15
2017-07-19T04:07:44.669Z,15
2017-07-19T04:08:44.777Z,15
2017-07-19T04:09:44.324Z,15
2017-07-19T04:10:44.307Z,15
2017-07-19T04:11:44.646Z,15
2017-07-19T04:12:44.306Z,20
2017-07-19T04:13:44.582Z,20
2017-07-19T04:14:44.616Z,20
2017-07-19T04:15:44.555Z,20
2017-07-19T04:16:43.926Z,20
2017-07-19T04:17:44.524Z,20
2017-07-19T04:18:43.626Z,20
2017-07-19T04:19:44.185Z,20
2017-07-19T04:20:43.879Z,25
2017-07-19T04:21:44.515Z,25
2017-07-19T04:22:43.838Z,25
2017-07-19T04:23:43.824Z,25
2017-07-19T04:24:44.433Z,25
2017-07-19T04:25:44.153Z,25
2017-07-19T04:26:44.406Z,25
2017-07-19T04:27:44.093Z,30
2017-07-19T04:28:44.066Z,30
2017-07-19T04:29:44.070Z,30
2017-07-19T04:30:44.029Z,30
2017-07-19T04:31:44.045Z,30
2017-07-19T04:32:43.695Z,30
2017-07-19T04:33:43.996Z,30
2017-07-19T04:34:44.301Z,30
2017-07-19T04:35:43.674Z,30
2017-07-19T04:36:43.640Z,30
2017-07-19T04:37:43.943Z,35
2017-07-19T04:38:43.934Z,35
2017-07-19T04:39:43.700Z,35
2017-07-19T04:40:43.329Z,35
2017-07-19T04:41:43.581Z,35
2017-07-19T04:42:43.882Z,35
2017-07-19T04:43:43.247Z,35
2017-07-19T04:44:43.839Z,35
2017-07-19T04:45:42.908Z,40
2017-07-19T04:46:44.133Z,40
2017-07-19T04:47:43.799Z,40
2017-07-19T04:48:43.466Z,40
2017-07-19T04:49:43.455Z,45
2017-07-19T04:50:43.454Z,45
2017-07-19T04:51:43.432Z,45
2017-07-19T04:52:44.045Z,45
2017-07-19T04:53:43.727Z,50
2017-07-19T04:54:43.417Z,50
2017-07-19T04:55:43.085Z,50
2017-07-19T04:56:43.368Z,50
2017-07-19T04:57:43.361Z,50
2017-07-19T04:58:43.974Z,55
2017-07-19T04:59:43.615Z,55
2017-07-19T05:00:43.329Z,55
2017-07-19T05:01:43.634Z,55
2017-07-19T05:02:43.894Z,55
2017-07-19T05:03:43.577Z,60
2017-07-19T05:04:43.258Z,60
2017-07-19T05:05:43.921Z,60
2017-07-19T05:06:43.564Z,60
2017-07-19T05:07:43.617Z,60
2017-07-19T05:08:43.819Z,60
2017-07-19T05:09:43.533Z,60
2017-07-19T05:10:43.485Z,60
2017-07-19T05:11:43.510Z,60
2017-07-19T05:12:42.846Z,65
2017-07-19T05:13:43.819Z,65
2017-07-19T05:14:43.491Z,65
2017-07-19T05:15:43.533Z,65
2017-07-19T05:16:43.397Z,65
2017-07-19T05:17:43.078Z,70
2017-07-19T05:18:43.376Z,70
2017-07-19T05:19:43.389Z,70
2017-07-19T05:20:43.333Z,70
2017-07-19T05:21:43.345Z,70
2017-07-19T05:22:43.352Z,70
2017-07-19T05:23:43.296Z,70
2017-07-19T05:24:42.969Z,75
2017-07-19T05:25:43.281Z,75
2017-07-19T05:26:43.560Z,75
2017-07-19T05:27:42.614Z,75
2017-07-19T05:28:42.934Z,75
2017-07-19T05:29:43.575Z,80
2017-07-19T05:30:43.203Z,80
2017-07-19T05:31:43.204Z,80
2017-07-19T05:32:43.566Z,85
2017-07-19T05:33:43.229Z,85
2017-07-19T05:34:43.506Z,90
2017-07-19T05:35:43.443Z,90
2017-07-19T05:36:43.182Z,90
2017-07-19T05:37:43.413Z,95
2017-07-19T05:38:43.390Z,95
2017-07-19T05:39:43.426Z,100
2017-07-19T05:40:42.837Z,100
2017-07-19T05:41:43.357Z,100
2017-07-19T05:42:42.864Z,100
2017-07-19T05:43:43.342Z,100
2017-07-19T05:44:43.367Z,100
2017-07-19T05:45:43.319Z,100
2017-07-19T05:46:42.976Z,95
2017-07-19T05:47:43.279Z,95
2017-07-19T05:48:42.943Z,100
2017-07-19T05:49:42.687Z,100
2017-07-19T05:50:43.281Z,100
2017-07-19T05:51:42.316Z,100
2017-07-19T05:52:43.233Z,100
2017-07-19T05:53:43.230Z,105
2017-07-19T05:54:43.222Z,100
2017-07-19T05:55:43.162Z,100
2017-07-19T05:56:42.555Z,100
2017-07-19T05:57:42.834Z,100
2017-07-19T05:58:42.235Z,95
2017-07-19T05:59:43.114Z,100
2017-07-19T06:00:43.106Z,100
2017-07-19T06:01:42.792Z,100
2017-07-19T06:02:42.468Z,100
2017-07-19T06:03:42.765Z,105
2017-07-19T06:04:42.147Z,105
2017-07-19T06:05:42.873Z,110
2017-07-19T06:06:42.415Z,110
2017-07-19T06:07:43.017Z,115
2017-07-19T06:08:42.998Z,115
2017-07-19T06:09:42.985Z,115
2017-07-19T06:10:42.363Z,115
2017-07-19T06:11:42.954Z,120
2017-07-19T06:12:42.374Z,120
2017-07-19T06:13:42.614Z,120
2017-07-19T06:14:42.922Z,120
2017-07-19T06:15:42.934Z,120
2017-07-19T06:16:42.597Z,125
2017-07-19T06:17:42.891Z,125
2017-07-19T06:18:42.883Z,125
2017-07-19T06:19:42.866Z,125
2017-07-19T06:20:42.834Z,125
2017-07-19T06:21:42.555Z,130
2017-07-19T06:22:42.824Z,130
2017-07-19T06:23:42.826Z,130
2017-07-19T06:24:42.792Z,130
2017-07-19T06:25:42.476Z,130
2017-07-19T06:26:42.764Z,130
2017-07-19T06:27:42.145Z,130
2017-07-19T06:28:42.162Z,130
2017-07-19T06:29:41.811Z,130
2017-07-19T06:30:42.108Z,130
2017-07-19T06:31:42.413Z,135
2017-07-19T06:32:42.811Z,135
2017-07-19T06:33:42.071Z,140
2017-07-19T06:34:42.095Z,140
2017-07-19T06:35:42.061Z,140
2017-07-19T06:36:42.352Z,145
2017-07-19T06:37:42.024Z,145
2017-07-19T06:38:42.001Z,145
2017-07-19T06:39:42.325Z,150
2017-07-19T06:40:42.055Z,150
2017-07-19T06:41:42.582Z,150
2017-07-19T06:42:41.784Z,150
2017-07-19T06:43:42.576Z,150
2017-07-19T06:44:41.969Z,155
2017-07-19T06:45:41.956Z,155
2017-07-19T06:46:42.227Z,155
2017-07-19T06:47:42.510Z,155
2017-07-19T06:48:41.916Z,155
2017-07-19T06:49:42.204Z,160
2017-07-19T06:50:41.925Z,160
2017-07-19T06:51:41.835Z,160
2017-07-19T06:52:42.155Z,165
2017-07-19T06:53:42.227Z,165
2017-07-19T06:54:41.803Z,165
2017-07-19T06:55:42.417Z,165
2017-07-19T06:56:42.113Z,170
2017-07-19T06:57:41.793Z,170
2017-07-19T06:58:42.403Z,170
2017-07-19T06:59:42.069Z,170
2017-07-19T07:00:42.072Z,170
2017-07-19T07:01:42.046Z,175
2017-07-19T07:02:42.333Z,175
2017-07-19T07:03:41.995Z,175
2017-07-19T07:04:42.030Z,175
2017-07-19T07:05:41.994Z,175
2017-07-19T07:06:42.315Z,175
2017-07-19T07:07:42.296Z,175
2017-07-19T07:08:41.956Z,175
2017-07-19T07:09:41.944Z,175
2017-07-19T07:10:42.252Z,180
2017-07-19T07:11:41.621Z,180
2017-07-19T07:12:41.002Z,180
2017-07-19T07:13:41.296Z,180
2017-07-19T07:14:41.947Z,180
2017-07-19T07:15:41.885Z,185
2017-07-19T07:16:42.197Z,180
2017-07-19T07:17:41.557Z,185
2017-07-19T07:18:42.133Z,185
2017-07-19T07:19:42.139Z,180
2017-07-19T07:20:41.844Z,180
2017-07-19T07:21:41.215Z,185
2017-07-19T07:22:42.135Z,185
2017-07-19T07:23:41.565Z,185
2017-07-19T07:24:41.773Z,185
2017-07-19T07:25:41.788Z,190
2017-07-19T07:26:41.749Z,190
2017-07-19T07:27:41.435Z,195
2017-07-19T07:28:41.751Z,195
2017-07-19T07:29:41.739Z,195
2017-07-19T07:30:42.034Z,195
2017-07-19T07:31:42.029Z,200
2017-07-19T07:32:41.184Z,200
2017-07-19T07:33:42.005Z,200
2017-07-19T07:34:41.675Z,200
2017-07-19T07:35:41.423Z,200
2017-07-19T07:36:41.976Z,205
2017-07-19T07:37:42.029Z,205
2017-07-19T07:38:42.014Z,205
2017-07-19T07:39:41.313Z,210
2017-07-19T07:40:41.633Z,215
2017-07-19T07:41:41.608Z,215
2017-07-19T07:42:41.925Z,215
2017-07-19T07:43:41.573Z,215
2017-07-19T07:44:41.673Z,215
2017-07-19T07:45:41.245Z,215
2017-07-19T07:46:41.574Z,220
2017-07-19T07:47:41.542Z,220
2017-07-19T07:48:41.506Z,220
2017-07-19T07:49:41.923Z,220
2017-07-19T07:50:41.189Z,225
2017-07-19T07:51:40.892Z,225
2017-07-19T07:52:41.484Z,230
2017-07-19T07:53:41.509Z,235
2017-07-19T07:54:41.472Z,240
2017-07-19T07:55:41.786Z,245
2017-07-19T07:56:41.168Z,245
2017-07-19T07:57:41.424Z,250
2017-07-19T07:58:41.224Z,250
2017-07-19T07:59:41.457Z,255
2017-07-19T08:00:41.185Z,250
2017-07-19T08:01:41.394Z,250
2017-07-19T08:02:41.401Z,255
2017-07-19T08:03:41.371Z,255
2017-07-19T08:04:41.391Z,260
2017-07-19T08:05:41.368Z,260
2017-07-19T08:06:41.657Z,260
2017-07-19T08:07:41.323Z,260
2017-07-19T08:08:41.127Z,265
2017-07-19T08:09:41.615Z,265
2017-07-19T08:10:41.083Z,270
2017-07-19T08:11:41.018Z,270
2017-07-19T08:12:41.082Z,270
2017-07-19T08:13:41.596Z,270
2017-07-19T08:14:41.604Z,275
2017-07-19T08:15:41.554Z,275
2017-07-19T08:16:40.966Z,275
2017-07-19T08:17:41.283Z,280
2017-07-19T08:18:41.544Z,285
2017-07-19T08:19:41.543Z,295
2017-07-19T08:20:40.927Z,295
2017-07-19T08:21:41.518Z,295
2017-07-19T08:22:40.966Z,305
2017-07-19T08:23:41.551Z,305
2017-07-19T08:24:41.548Z,305
2017-07-19T08:25:41.600Z,305
2017-07-19T08:26:41.510Z,315
2017-07-19T08:27:41.201Z,310
2017-07-19T08:28:41.227Z,315
2017-07-19T08:29:41.470Z,315
2017-07-19T08:30:40.846Z,310
2017-07-19T08:31:40.854Z,305
2017-07-19T08:32:41.493Z,305
2017-07-19T08:33:41.436Z,315
2017-07-19T08:34:40.798Z,320
2017-07-19T08:35:41.424Z,325
2017-07-19T08:36:40.890Z,330
2017-07-19T08:37:41.088Z,325
2017-07-19T08:38:41.085Z,330
2017-07-19T08:39:41.074Z,340
2017-07-19T08:40:41.430Z,330
2017-07-19T08:41:41.353Z,335
2017-07-19T08:42:41.047Z,340
2017-07-19T08:43:41.028Z,340
2017-07-19T08:44:41.036Z,340
2017-07-19T08:45:40.817Z,335
2017-07-19T08:46:41.002Z,330
2017-07-19T08:47:41.347Z,335
2017-07-19T08:48:40.998Z,315
2017-07-19T08:49:41.008Z,305
2017-07-19T08:50:41.285Z,310
2017-07-19T08:51:41.274Z,310
2017-07-19T08:52:40.980Z,335
2017-07-19T08:53:40.992Z,375
2017-07-19T08:54:40.951Z,410
2017-07-19T08:55:41.241Z,410
2017-07-19T08:56:40.948Z,430
2017-07-19T08:57:40.947Z,515
2017-07-19T08:58:40.923Z,615
2017-07-19T08:59:40.934Z,665
2017-07-19T09:00:41.213Z,655
2017-07-19T09:01:40.595Z,885
2017-07-19T09:02:40.906Z,775
2017-07-19T09:03:40.898Z,615
2017-07-19T09:04:41.209Z,725
2017-07-19T09:05:40.575Z,550
2017-07-19T09:06:41.421Z,475
2017-07-19T09:07:40.897Z,460
2017-07-19T09:08:40.863Z,520
2017-07-19T09:09:41.163Z,570
2017-07-19T09:10:40.957Z,625
2017-07-19T09:11:40.835Z,745
2017-07-19T09:12:40.834Z,670
2017-07-19T09:13:41.145Z,990
2017-07-19T09:14:41.142Z,905
2017-07-19T09:15:40.820Z,915
2017-07-19T09:16:40.811Z,820
2017-07-19T09:17:40.819Z,830
2017-07-19T09:18:41.134Z,950
2017-07-19T09:19:40.796Z,910
2017-07-19T09:20:41.114Z,830
2017-07-19T09:21:40.802Z,770
2017-07-19T09:22:40.809Z,840
2017-07-19T09:23:40.820Z,770
2017-07-19T09:24:40.778Z,560
2017-07-19T09:25:41.078Z,515
2017-07-19T09:26:41.075Z,535
2017-07-19T09:27:40.769Z,630
2017-07-19T09:28:40.828Z,525
2017-07-19T09:29:41.077Z,530
2017-07-19T09:30:40.767Z,595
2017-07-19T09:31:40.757Z,615
2017-07-19T09:32:41.074Z,555
2017-07-19T09:33:41.045Z,675
2017-07-19T09:34:41.063Z,665
2017-07-19T09:35:41.053Z,715
2017-07-19T09:36:41.038Z,765
2017-07-19T09:37:40.742Z,780
2017-07-19T09:38:40.423Z,840
2017-07-19T09:39:41.033Z,895
2017-07-19T09:40:41.043Z,955
2017-07-19T09:41:41.113Z,985
2017-07-19T09:42:40.725Z,985
2017-07-19T09:43:41.129Z,1000
2017-07-19T09:44:41.033Z,1060
2017-07-19T09:45:41.035Z,1065
2017-07-19T09:46:41.105Z,975
2017-07-19T09:47:40.374Z,745
2017-07-19T09:48:41.025Z,590
2017-07-19T09:49:41.006Z,650
2017-07-19T09:50:40.700Z,615
2017-07-19T09:51:40.680Z,560
2017-07-19T09:52:40.702Z,710
2017-07-19T09:53:40.708Z,910
2017-07-19T09:54:40.387Z,875
2017-07-19T09:55:41.004Z,855
2017-07-19T09:56:40.981Z,815
2017-07-19T09:57:40.677Z,700
2017-07-19T09:58:40.989Z,810
2017-07-19T09:59:40.685Z,860
2017-07-19T10:00:40.974Z,900
2017-07-19T10:01:40.385Z,925
2017-07-19T10:02:40.977Z,905
2017-07-19T10:03:40.685Z,870
2017-07-19T10:04:40.996Z,855
2017-07-19T10:05:40.673Z,860
2017-07-19T10:06:41.028Z,890
2017-07-19T10:07:41.118Z,875
2017-07-19T10:08:41.066Z,830
2017-07-19T10:09:40.796Z,800
2017-07-19T10:10:40.996Z,785
2017-07-19T10:11:40.343Z,740
2017-07-19T10:12:40.979Z,755
2017-07-19T10:13:40.095Z,730
2017-07-19T10:14:40.653Z,715
2017-07-19T10:15:40.979Z,775
2017-07-19T10:16:40.980Z,770
2017-07-19T10:17:40.970Z,705
2017-07-19T10:18:41.013Z,705
2017-07-19T10:19:40.677Z,725
2017-07-19T10:20:40.357Z,730
2017-07-19T10:21:40.976Z,725
2017-07-19T10:22:40.966Z,755
2017-07-19T10:23:40.636Z,745
2017-07-19T10:24:40.365Z,735
2017-07-19T10:25:40.952Z,700
2017-07-19T10:26:40.967Z,685
2017-07-19T10:27:40.955Z,700
2017-07-19T10:28:40.635Z,690
2017-07-19T10:29:40.939Z,700
2017-07-19T10:30:40.647Z,660
2017-07-19T10:31:40.948Z,645
2017-07-19T10:32:40.660Z,515
2017-07-19T10:33:40.761Z,370
2017-07-19T10:34:40.936Z,330
2017-07-19T10:35:40.952Z,320
2017-07-19T10:36:40.967Z,315
2017-07-19T10:37:40.985Z,315
2017-07-19T10:38:40.625Z,315
2017-07-19T10:39:40.999Z,315
2017-07-19T10:40:40.987Z,315
2017-07-19T10:41:40.304Z,310
2017-07-19T10:42:40.337Z,310
2017-07-19T10:43:40.611Z,310
2017-07-19T10:44:40.614Z,305
2017-07-19T10:45:40.945Z,310
2017-07-19T10:46:40.945Z,305
2017-07-19T10:47:40.915Z,305
2017-07-19T10:48:40.615Z,300
2017-07-19T10:49:40.285Z,300
2017-07-19T10:50:40.307Z,300
2017-07-19T10:51:40.282Z,295
2017-07-19T10:52:40.903Z,295
2017-07-19T10:53:40.876Z,295
2017-07-19T10:54:40.878Z,295
2017-07-19T10:55:40.909Z,295
2017-07-19T10:56:40.907Z,295
2017-07-19T10:57:40.255Z,290
2017-07-19T10:58:40.623Z,295
2017-07-19T10:59:40.605Z,290
2017-07-19T11:00:39.945Z,290
2017-07-19T11:01:40.600Z,290
2017-07-19T11:02:40.859Z,290
2017-07-19T11:03:40.859Z,290
2017-07-19T11:04:40.887Z,285
2017-07-19T11:05:40.837Z,285
2017-07-19T11:06:40.871Z,285
2017-07-19T11:07:40.837Z,285
2017-07-19T11:08:40.847Z,285
2017-07-19T11:09:40.580Z,285
2017-07-19T11:10:40.827Z,285
2017-07-19T11:11:40.575Z,280
2017-07-19T11:12:40.817Z,280
2017-07-19T11:13:40.818Z,280
2017-07-19T11:14:40.819Z,280
2017-07-19T11:15:40.882Z,280
2017-07-19T11:16:40.476Z,280
2017-07-19T11:17:40.505Z,280
2017-07-19T11:18:40.784Z,280
2017-07-19T11:19:40.785Z,280
2017-07-19T11:20:40.764Z,275
2017-07-19T11:21:40.487Z,275
2017-07-19T11:22:40.467Z,280
2017-07-19T11:23:40.774Z,280
2017-07-19T11:24:40.475Z,275
2017-07-19T11:25:40.752Z,275
2017-07-19T11:26:40.784Z,275
2017-07-19T11:27:40.444Z,275
2017-07-19T11:28:40.769Z,275
2017-07-19T11:29:40.778Z,275
2017-07-19T11:30:40.746Z,275
2017-07-19T11:31:40.737Z,275
2017-07-19T11:32:40.426Z,280
2017-07-19T11:33:40.415Z,275
2017-07-19T11:34:40.726Z,275
2017-07-19T11:35:40.431Z,280
2017-07-19T11:36:40.723Z,280
2017-07-19T11:37:40.748Z,275
2017-07-19T11:38:40.436Z,275
2017-07-19T11:39:40.484Z,275
2017-07-19T11:40:40.396Z,275
2017-07-19T11:41:40.105Z,280
2017-07-19T11:42:40.400Z,275
2017-07-19T11:43:40.408Z,275
2017-07-19T11:44:40.752Z,265
2017-07-19T11:45:40.390Z,270
2017-07-19T11:46:40.433Z,270
2017-07-19T11:47:40.716Z,265
2017-07-19T11:48:40.688Z,260
2017-07-19T11:49:40.680Z,245
2017-07-19T11:50:40.368Z,245
2017-07-19T11:51:40.365Z,240
2017-07-19T11:52:40.338Z,225
2017-07-19T11:53:40.363Z,200
2017-07-19T11:54:40.353Z,195
2017-07-19T11:55:40.365Z,205
2017-07-19T11:56:40.024Z,190
2017-07-19T11:57:40.344Z,195
2017-07-19T11:58:40.332Z,180
2017-07-19T11:59:40.336Z,180
2017-07-19T12:00:40.345Z,180
2017-07-19T12:01:40.343Z,175
2017-07-19T12:02:40.354Z,180
2017-07-19T12:03:40.355Z,185
2017-07-19T12:04:40.617Z,185
2017-07-19T12:05:40.316Z,190
2017-07-19T12:06:40.316Z,220
2017-07-19T12:07:40.305Z,240
2017-07-19T12:08:40.657Z,250
2017-07-19T12:09:40.659Z,255
2017-07-19T12:10:40.673Z,255
2017-07-19T12:11:40.405Z,260
2017-07-19T12:12:40.310Z,260
2017-07-19T12:13:40.513Z,260
2017-07-19T12:14:40.367Z,265
2017-07-19T12:15:39.993Z,260
2017-07-19T12:16:39.674Z,260
2017-07-19T12:17:39.976Z,260
2017-07-19T12:18:40.566Z,260
2017-07-19T12:19:40.584Z,260
2017-07-19T12:20:40.238Z,260
2017-07-19T12:21:40.004Z,260
2017-07-19T12:22:40.534Z,255
2017-07-19T12:23:40.534Z,250
2017-07-19T12:24:40.214Z,245
2017-07-19T12:25:40.546Z,245
2017-07-19T12:26:40.198Z,240
2017-07-19T12:27:40.539Z,230
2017-07-19T12:28:40.540Z,230
2017-07-19T12:29:40.501Z,230
2017-07-19T12:30:39.891Z,225
2017-07-19T12:31:40.193Z,225
2017-07-19T12:32:40.514Z,210
2017-07-19T12:33:40.212Z,215
2017-07-19T12:34:40.505Z,210
2017-07-19T12:35:40.510Z,210
2017-07-19T12:36:40.505Z,215
2017-07-19T12:37:40.475Z,215
2017-07-19T12:38:40.498Z,215
2017-07-19T12:39:40.653Z,225
2017-07-19T12:40:40.620Z,220
2017-07-19T12:41:40.481Z,225
2017-07-19T12:42:40.479Z,235
2017-07-19T12:43:40.480Z,235
2017-07-19T12:44:40.470Z,240
2017-07-19T12:45:40.453Z,245
2017-07-19T12:46:40.247Z,240
2017-07-19T12:47:40.455Z,245
2017-07-19T12:48:40.495Z,225
2017-07-19T12:49:40.449Z,220
2017-07-19T12:50:40.446Z,210
2017-07-19T12:51:40.450Z,205
2017-07-19T12:52:40.435Z,225
2017-07-19T12:53:40.113Z,220
2017-07-19T12:54:40.457Z,210
2017-07-19T12:55:40.435Z,210
2017-07-19T12:56:40.128Z,205
2017-07-19T12:57:40.422Z,195
2017-07-19T12:58:40.405Z,205
2017-07-19T12:59:40.415Z,205
2017-07-19T13:00:40.396Z,215
2017-07-19T13:01:40.388Z,210
2017-07-19T13:02:40.393Z,215
2017-07-19T13:03:40.416Z,215
2017-07-19T13:04:40.384Z,215
2017-07-19T13:05:39.765Z,215
2017-07-19T13:06:40.365Z,215
2017-07-19T13:07:39.751Z,195
2017-07-19T13:08:39.455Z,170
2017-07-19T13:09:40.055Z,180
2017-07-19T13:10:40.483Z,205
2017-07-19T13:11:40.465Z,200
2017-07-19T13:12:40.360Z,215
2017-07-19T13:13:40.354Z,220
2017-07-19T13:14:40.344Z,230
2017-07-19T13:15:39.476Z,235
2017-07-19T13:16:40.396Z,235
2017-07-19T13:17:40.445Z,240
2017-07-19T13:18:40.324Z,240
2017-07-19T13:19:40.334Z,240
2017-07-19T13:20:40.133Z,240
2017-07-19T13:21:40.356Z,245
2017-07-19T13:22:40.010Z,245
2017-07-19T13:23:40.342Z,240
2017-07-19T13:24:39.682Z,240
2017-07-19T13:25:39.394Z,245
2017-07-19T13:26:40.317Z,240
2017-07-19T13:27:39.985Z,235
2017-07-19T13:28:39.983Z,235
2017-07-19T13:29:39.977Z,230
2017-07-19T13:30:39.675Z,220
2017-07-19T13:31:40.003Z,215
2017-07-19T13:32:39.689Z,215
2017-07-19T13:33:40.259Z,210
2017-07-19T13:34:40.081Z,215
2017-07-19T13:35:40.253Z,215
2017-07-19T13:36:39.939Z,215
2017-07-19T13:37:40.255Z,215
2017-07-19T13:38:39.675Z,210
2017-07-19T13:39:40.317Z,210
2017-07-19T13:40:40.022Z,210
2017-07-19T13:41:40.009Z,210
2017-07-19T13:42:40.309Z,200
2017-07-19T13:43:40.354Z,205
2017-07-19T13:44:40.306Z,200
2017-07-19T13:45:40.341Z,200
2017-07-19T13:46:40.264Z,200
2017-07-19T13:47:40.236Z,195
2017-07-19T13:48:40.047Z,190
2017-07-19T13:49:40.265Z,185
2017-07-19T13:50:39.341Z,180
2017-07-19T13:51:40.255Z,180
2017-07-19T13:52:39.929Z,155
2017-07-19T13:53:40.264Z,165
2017-07-19T13:54:40.304Z,125
2017-07-19T13:55:39.891Z,125
2017-07-19T13:56:39.619Z,130
2017-07-19T13:57:40.214Z,130
2017-07-19T13:58:39.903Z,135
2017-07-19T13:59:39.618Z,165
2017-07-19T14:00:39.914Z,145
2017-07-19T14:01:39.579Z,160
2017-07-19T14:02:39.585Z,165
2017-07-19T14:03:39.585Z,170
2017-07-19T14:04:39.933Z,165
2017-07-19T14:05:39.923Z,165